TAP1542 GVNP-LPPT
Flight info
| Callsign | TAP1542 |
|---|---|
| Flight time | N/A |
| Altitude | 35000 |
| Route | AMDER1N CVS UN873 IPERA N873 GDV N858 VASTO DCT BAROK DCT VATZI |
| Aircraft | A21N/M-SADE3FGHIJ1J3J7M3RWXYZ/LB1D1 |
Departure
| Time | N/A |
|---|---|
| Airport | Nelson Mandela International Airport (GVNP) |
Arrival
| Time | 2026-04-28 19:51 |
|---|---|
| Airport | Lisbon Humberto Delgado Airport (LPPT) |
| Time | Latitude | Longitude | Altitude | Speed | Heading |
|---|---|---|---|---|---|
| 2026-04-28 19:39 | 38.00206 | -9.02770 | 14715 ft | 319 kts | 340° |
| 2026-04-28 19:40 | 38.02305 | -9.03648 | 14350 ft | 317 kts | 340° |
| 2026-04-28 19:40 | 38.04394 | -9.04510 | 13976 ft | 315 kts | 342° |
| 2026-04-28 19:40 | 38.06489 | -9.05249 | 13601 ft | 313 kts | 343° |
| 2026-04-28 19:40 | 38.08613 | -9.05964 | 13217 ft | 311 kts | 343° |
| 2026-04-28 19:41 | 38.10690 | -9.06666 | 12831 ft | 309 kts | 343° |
| 2026-04-28 19:41 | 38.12786 | -9.07381 | 12443 ft | 308 kts | 343° |
| 2026-04-28 19:41 | 38.14851 | -9.08093 | 12053 ft | 306 kts | 343° |
| 2026-04-28 19:41 | 38.16879 | -9.08796 | 11683 ft | 304 kts | 343° |
| 2026-04-28 19:42 | 38.18943 | -9.09514 | 11286 ft | 302 kts | 343° |
| 2026-04-28 19:42 | 38.20973 | -9.10222 | 10916 ft | 300 kts | 343° |
| 2026-04-28 19:42 | 38.22979 | -9.10922 | 10549 ft | 298 kts | 343° |
| 2026-04-28 19:42 | 38.24319 | -9.11391 | 10295 ft | 297 kts | 343° |
| 2026-04-28 19:43 | 38.26971 | -9.12320 | 9792 ft | 295 kts | 343° |
| 2026-04-28 19:43 | 38.28937 | -9.13009 | 9412 ft | 293 kts | 343° |
| 2026-04-28 19:43 | 38.30908 | -9.13701 | 9036 ft | 291 kts | 343° |
| 2026-04-28 19:43 | 38.32831 | -9.14376 | 8673 ft | 289 kts | 343° |
| 2026-04-28 19:44 | 38.34778 | -9.15060 | 8304 ft | 287 kts | 343° |
| 2026-04-28 19:44 | 38.36704 | -9.15736 | 7930 ft | 285 kts | 343° |
| 2026-04-28 19:44 | 38.38605 | -9.16404 | 7556 ft | 283 kts | 344° |
| 2026-04-28 19:44 | 38.40488 | -9.17065 | 7183 ft | 281 kts | 343° |
| 2026-04-28 19:45 | 38.42365 | -9.17725 | 6809 ft | 280 kts | 343° |
| 2026-04-28 19:45 | 38.44223 | -9.18379 | 6445 ft | 278 kts | 343° |
| 2026-04-28 19:45 | 38.46084 | -9.19035 | 6060 ft | 276 kts | 344° |
| 2026-04-28 19:45 | 38.47930 | -9.19686 | 5714 ft | 274 kts | 344° |
| 2026-04-28 19:46 | 38.49744 | -9.20324 | 5340 ft | 272 kts | 344° |
| 2026-04-28 19:46 | 38.51535 | -9.20956 | 4998 ft | 269 kts | 344° |
| 2026-04-28 19:46 | 38.53345 | -9.21594 | 4735 ft | 263 kts | 344° |
| 2026-04-28 19:46 | 38.55077 | -9.22206 | 4497 ft | 257 kts | 344° |
| 2026-04-28 19:47 | 38.56771 | -9.22804 | 4329 ft | 248 kts | 344° |
| 2026-04-28 19:47 | 38.58423 | -9.23369 | 4117 ft | 242 kts | 349° |
| 2026-04-28 19:47 | 38.60092 | -9.23250 | 3794 ft | 241 kts | 15° |
| 2026-04-28 19:47 | 38.61649 | -9.22517 | 3492 ft | 239 kts | 23° |
| 2026-04-28 19:48 | 38.63168 | -9.21646 | 3182 ft | 237 kts | 24° |
| 2026-04-28 19:48 | 38.64673 | -9.20791 | 2870 ft | 232 kts | 22° |
| 2026-04-28 19:48 | 38.66112 | -9.20007 | 2560 ft | 218 kts | 21° |
| 2026-04-28 19:48 | 38.67459 | -9.19289 | 2372 ft | 200 kts | 21° |
| 2026-04-28 19:49 | 38.68708 | -9.18624 | 2115 ft | 186 kts | 20° |
| 2026-04-28 19:49 | 38.69861 | -9.18009 | 1843 ft | 172 kts | 20° |
| 2026-04-28 19:49 | 38.70929 | -9.17439 | 1575 ft | 157 kts | 20° |
| 2026-04-28 19:49 | 38.71886 | -9.16927 | 1355 ft | 141 kts | 20° |
| 2026-04-28 19:50 | 38.73682 | -9.15971 | 1021 ft | 139 kts | 20° |
| 2026-04-28 19:50 | 38.74579 | -9.15483 | 818 ft | 139 kts | 20° |
| 2026-04-28 19:50 | 38.75467 | -9.15010 | 653 ft | 140 kts | 20° |
| 2026-04-28 19:51 | 38.76364 | -9.14535 | 477 ft | 139 kts | 20° |
| 2026-04-28 19:51 | 38.77242 | -9.14066 | 382 ft | 129 kts | 21° |
| 2026-04-28 19:51 | 38.77930 | -9.13700 | 381 ft | 81 kts | 22° |
| 2026-04-28 19:51 | 38.78241 | -9.13513 | 381 ft | 30 kts | 37° |
| 2026-04-28 19:52 | 38.78351 | -9.13380 | 381 ft | 11 kts | 50° |
| 2026-04-28 19:52 | 38.78377 | -9.13313 | 381 ft | 8 kts | 85° |
| 2026-04-28 19:52 | 38.78346 | -9.13263 | 381 ft | 7 kts | 162° |
| 2026-04-28 19:52 | 38.78294 | -9.13274 | 381 ft | 8 kts | 202° |
| 2026-04-28 19:53 | 38.78234 | -9.13307 | 381 ft | 10 kts | 203° |
| 2026-04-28 19:53 | 38.78171 | -9.13341 | 381 ft | 11 kts | 203° |
| 2026-04-28 19:53 | 38.78091 | -9.13385 | 381 ft | 12 kts | 203° |
| 2026-04-28 19:53 | 38.78007 | -9.13406 | 381 ft | 12 kts | 168° |
| 2026-04-28 19:54 | 38.77952 | -9.13393 | 381 ft | 13 kts | 169° |
| 2026-04-28 19:54 | 38.77855 | -9.13369 | 381 ft | 12 kts | 168° |
| 2026-04-28 19:54 | 38.77788 | -9.13351 | 381 ft | 9 kts | 168° |
| 2026-04-28 19:54 | 38.77726 | -9.13335 | 381 ft | 10 kts | 168° |
| 2026-04-28 19:55 | 38.77644 | -9.13317 | 381 ft | 11 kts | 177° |
| 2026-04-28 19:55 | 38.77562 | -9.13313 | 381 ft | 10 kts | 169° |
| 2026-04-28 19:55 | 38.77535 | -9.13260 | 381 ft | 8 kts | 75° |
| 2026-04-28 19:55 | 38.77546 | -9.13194 | 381 ft | 6 kts | 78° |
| 2026-04-28 19:56 | 38.77547 | -9.13184 | 381 ft | 0 kts | 78° |